Time;durP1;ratioP1;P1;durP2;ratioP2;P2;SDS_P1;SDS_P2;PMS_P1;PMS_P2;Temp;Humidity;BMP_temperature;BMP_pressure;BME280_temperature;BME280_humidity;BME280_pressure;Samples;Min_cycle;Max_cycle;Signal;HPM_P1;HPM_P2
2021/04/29 00:00:10;;;;;;;1.00;0.87;;;;;;;;;;5032116;28;20466;-76
2021/04/29 00:02:36;;;;;;;1.00;0.70;;;;;;;;;;5032974;28;20467;-76
2021/04/29 00:05:03;;;;;;;1.00;0.60;;;;;;;;;;5026660;28;20443;-76
2021/04/29 00:07:29;;;;;;;1.20;0.80;;;;;;;;;;5027234;28;20540;-76
2021/04/29 00:09:55;;;;;;;1.00;0.60;;;;;;;;;;5034688;28;20538;-76
2021/04/29 00:12:20;;;;;;;1.00;0.60;;;;;;;;;;5052161;28;20436;-76
2021/04/29 00:14:46;;;;;;;1.00;0.70;;;;;;;;;;5032810;28;20399;-76
2021/04/29 00:17:12;;;;;;;1.00;0.60;;;;;;;;;;5032831;28;20423;-76
2021/04/29 00:19:38;;;;;;;1.00;0.70;;;;;;;;;;5043302;28;20481;-76
2021/04/29 00:22:04;;;;;;;1.00;0.70;;;;;;;;;;5030958;28;20517;-76
2021/04/29 00:24:30;;;;;;;1.00;0.60;;;;;;;;;;5025430;28;20475;-76
2021/04/29 00:26:56;;;;;;;1.00;0.60;;;;;;;;;;5030404;28;20440;-76
2021/04/29 00:29:22;;;;;;;1.00;0.70;;;;;;;;;;5027877;28;20513;-76
2021/04/29 00:31:48;;;;;;;1.00;0.60;;;;;;;;;;5032618;28;20793;-76
2021/04/29 00:34:14;;;;;;;1.10;0.70;;;;;;;;;;5045292;28;21040;-76
2021/04/29 00:36:40;;;;;;;1.10;0.63;;;;;;;;;;5051111;28;20418;-76
2021/04/29 00:39:06;;;;;;;1.10;0.60;;;;;;;;;;5030166;28;20421;-77
2021/04/29 00:41:32;;;;;;;1.10;0.63;;;;;;;;;;5045128;28;20467;-76
2021/04/29 00:43:58;;;;;;;1.10;0.70;;;;;;;;;;5037403;28;20529;-76
2021/04/29 00:46:24;;;;;;;1.10;0.60;;;;;;;;;;5032770;28;20828;-76
2021/04/29 00:48:50;;;;;;;1.10;0.60;;;;;;;;;;5032866;28;20415;-77
2021/04/29 00:51:18;;;;;;;1.10;0.70;;;;;;;;;;5032659;28;20199;-76
2021/04/29 00:53:45;;;;;;;1.10;0.60;;;;;;;;;;5032480;28;20432;-76
2021/04/29 00:56:11;;;;;;;1.10;0.60;;;;;;;;;;5030012;28;20228;-76
2021/04/29 00:58:38;;;;;;;1.10;0.60;;;;;;;;;;5023450;28;20769;-76
2021/04/29 01:01:04;;;;;;;1.10;0.70;;;;;;;;;;5031574;28;20655;-76
2021/04/29 01:03:33;;;;;;;1.10;0.60;;;;;;;;;;5032662;28;20206;-77
2021/04/29 01:06:12;;;;;;;1.10;0.60;;;;;;;;;;5016039;28;20275;-76
2021/04/29 01:08:47;;;;;;;1.10;0.60;;;;;;;;;;5032280;28;20174;-76
2021/04/29 01:11:16;;;;;;;1.10;0.60;;;;;;;;;;5039691;28;20268;-76
2021/04/29 01:13:44;;;;;;;1.10;0.60;;;;;;;;;;5030229;28;20202;-76
2021/04/29 01:16:12;;;;;;;1.10;0.60;;;;;;;;;;5031899;28;20415;-76
2021/04/29 01:18:38;;;;;;;1.10;0.60;;;;;;;;;;5032169;28;20197;-77
2021/04/29 01:21:13;;;;;;;1.10;0.60;;;;;;;;;;5028779;28;20443;-76
2021/04/29 01:23:42;;;;;;;1.10;0.60;;;;;;;;;;5032500;28;20956;-76
2021/04/29 01:26:26;;;;;;;1.10;0.60;;;;;;;;;;5031439;28;20183;-76
2021/04/29 01:28:52;;;;;;;1.10;0.75;;;;;;;;;;5030274;28;20184;-76
2021/04/29 01:31:21;;;;;;;1.10;0.70;;;;;;;;;;5039842;28;20206;-76
2021/04/29 01:33:48;;;;;;;1.10;0.70;;;;;;;;;;5039786;28;20489;-76
2021/04/29 01:36:14;;;;;;;1.10;0.60;;;;;;;;;;5031339;28;20186;-77
2021/04/29 01:38:40;;;;;;;1.10;0.70;;;;;;;;;;5029881;28;20937;-76
2021/04/29 01:41:06;;;;;;;1.10;0.60;;;;;;;;;;5031120;28;20425;-76
2021/04/29 01:43:33;;;;;;;1.10;0.60;;;;;;;;;;5029723;28;20549;-76
2021/04/29 01:46:01;;;;;;;1.10;0.60;;;;;;;;;;5031828;28;20590;-76
2021/04/29 01:48:26;;;;;;;1.10;0.60;;;;;;;;;;5031891;28;20786;-76
2021/04/29 01:50:53;;;;;;;1.10;0.60;;;;;;;;;;5031194;28;20417;-77
2021/04/29 01:53:19;;;;;;;1.10;0.60;;;;;;;;;;5031449;28;20445;-76
2021/04/29 01:55:45;;;;;;;1.10;0.60;;;;;;;;;;5029284;28;20960;-76
2021/04/29 01:58:11;;;;;;;1.10;0.60;;;;;;;;;;5028576;28;20438;-76
2021/04/29 02:00:37;;;;;;;1.10;0.60;;;;;;;;;;5034441;28;20176;-75
2021/04/29 02:03:03;;;;;;;1.10;0.70;;;;;;;;;;5047594;28;21103;-76
2021/04/29 02:05:29;;;;;;;1.00;0.60;;;;;;;;;;5035187;28;20428;-76
2021/04/29 02:07:57;;;;;;;1.10;0.60;;;;;;;;;;5030843;28;20452;-76
2021/04/29 02:10:23;;;;;;;1.10;0.70;;;;;;;;;;5031156;28;20419;-76
2021/04/29 02:12:52;;;;;;;1.10;0.70;;;;;;;;;;5028954;28;20207;-76
2021/04/29 02:15:18;;;;;;;1.10;0.60;;;;;;;;;;5031136;28;20461;-76
2021/04/29 02:17:49;;;;;;;1.10;0.60;;;;;;;;;;5031626;28;20176;-76
2021/04/29 02:20:16;;;;;;;1.10;0.70;;;;;;;;;;5031223;28;20183;-76
2021/04/29 02:22:43;;;;;;;1.10;0.60;;;;;;;;;;5028043;28;20204;-76
2021/04/29 02:25:10;;;;;;;1.10;0.60;;;;;;;;;;5037588;28;20179;-76
2021/04/29 02:27:36;;;;;;;1.10;0.70;;;;;;;;;;5028572;28;20177;-76
2021/04/29 02:30:05;;;;;;;1.10;0.60;;;;;;;;;;5030039;28;20183;-76
2021/04/29 02:32:31;;;;;;;1.10;0.70;;;;;;;;;;5043875;28;20482;-76
2021/04/29 02:34:57;;;;;;;1.10;0.70;;;;;;;;;;5036733;28;20457;-76
2021/04/29 02:37:23;;;;;;;1.10;0.70;;;;;;;;;;5029373;28;20491;-76
2021/04/29 02:39:50;;;;;;;1.10;0.70;;;;;;;;;;5035250;28;20207;-76
2021/04/29 02:42:16;;;;;;;1.10;0.60;;;;;;;;;;5046880;28;20202;-76
2021/04/29 02:44:41;;;;;;;1.10;0.70;;;;;;;;;;5030849;28;20314;-76
2021/04/29 02:47:08;;;;;;;1.10;0.60;;;;;;;;;;5033155;28;20397;-76
2021/04/29 02:49:34;;;;;;;1.10;0.60;;;;;;;;;;5032480;28;20411;-76
2021/04/29 02:52:00;;;;;;;1.10;0.70;;;;;;;;;;5030308;28;20583;-76
2021/04/29 02:54:26;;;;;;;1.10;0.60;;;;;;;;;;5044645;28;20446;-76
2021/04/29 02:56:52;;;;;;;1.10;0.70;;;;;;;;;;5030434;28;20699;-76
2021/04/29 02:59:18;;;;;;;1.10;0.60;;;;;;;;;;5030150;28;20434;-76
2021/04/29 03:01:44;;;;;;;1.10;0.60;;;;;;;;;;5048429;22;20302;-76
2021/04/29 03:04:10;;;;;;;1.10;0.67;;;;;;;;;;5053512;28;20399;-76
2021/04/29 03:06:36;;;;;;;1.10;0.60;;;;;;;;;;5051784;28;20403;-76
2021/04/29 03:09:03;;;;;;;1.10;0.60;;;;;;;;;;5053215;28;20178;-75
2021/04/29 03:11:29;;;;;;;1.10;0.60;;;;;;;;;;5057767;28;20207;-76
2021/04/29 03:13:55;;;;;;;1.10;0.70;;;;;;;;;;5051113;28;20237;-76
2021/04/29 03:16:21;;;;;;;1.10;0.60;;;;;;;;;;5051596;28;20174;-76
2021/04/29 03:18:47;;;;;;;1.10;0.70;;;;;;;;;;5053220;28;20404;-76
2021/04/29 03:21:13;;;;;;;1.10;0.60;;;;;;;;;;5051902;28;20458;-76
2021/04/29 03:23:39;;;;;;;1.10;0.60;;;;;;;;;;5051653;28;20432;-76
2021/04/29 03:26:05;;;;;;;1.23;1.13;;;;;;;;;;5053406;28;20444;-76
2021/04/29 03:28:31;;;;;;;1.10;0.60;;;;;;;;;;5049137;28;20182;-76
2021/04/29 03:30:57;;;;;;;1.10;0.70;;;;;;;;;;5053052;28;20425;-76
2021/04/29 03:33:23;;;;;;;1.10;0.70;;;;;;;;;;5051634;28;20553;-76
2021/04/29 03:35:49;;;;;;;1.10;0.60;;;;;;;;;;5052492;28;20186;-76
2021/04/29 03:38:15;;;;;;;1.10;0.70;;;;;;;;;;5052971;28;20321;-76
2021/04/29 03:40:41;;;;;;;1.10;0.60;;;;;;;;;;5059397;28;20420;-76
2021/04/29 03:43:07;;;;;;;1.10;0.60;;;;;;;;;;5051022;28;20298;-76
2021/04/29 03:45:33;;;;;;;1.10;0.70;;;;;;;;;;5052565;28;20402;-76
2021/04/29 03:48:00;;;;;;;1.10;0.70;;;;;;;;;;5052093;28;20912;-76
2021/04/29 03:50:26;;;;;;;1.10;0.60;;;;;;;;;;5058003;28;20174;-76
2021/04/29 03:52:52;;;;;;;1.10;0.70;;;;;;;;;;5051396;28;20638;-76
2021/04/29 03:55:18;;;;;;;1.10;0.68;;;;;;;;;;5052045;28;20268;-75
2021/04/29 03:57:44;;;;;;;1.10;0.70;;;;;;;;;;5050107;28;20615;-75
2021/04/29 04:00:11;;;;;;;1.10;0.60;;;;;;;;;;5044216;28;20482;-76
2021/04/29 04:02:37;;;;;;;1.10;0.70;;;;;;;;;;5031278;28;565518;-76
2021/04/29 04:05:04;;;;;;;1.10;0.70;;;;;;;;;;5053673;28;20262;-76
2021/04/29 04:07:30;;;;;;;1.10;0.70;;;;;;;;;;5050717;28;20436;-76
2021/04/29 04:09:55;;;;;;;1.10;0.70;;;;;;;;;;5048361;28;20178;-76
2021/04/29 04:12:21;;;;;;;1.10;0.60;;;;;;;;;;5048977;28;20929;-76
2021/04/29 04:14:47;;;;;;;1.10;0.60;;;;;;;;;;5051499;28;20442;-76
2021/04/29 04:17:13;;;;;;;1.10;0.70;;;;;;;;;;5052441;28;20403;-74
2021/04/29 04:19:39;;;;;;;1.10;0.70;;;;;;;;;;5053225;28;20911;-75
2021/04/29 04:22:05;;;;;;;1.10;0.70;;;;;;;;;;5050809;28;20430;-76
2021/04/29 04:24:31;;;;;;;1.10;0.60;;;;;;;;;;5053041;28;20412;-76
2021/04/29 04:26:57;;;;;;;1.10;0.70;;;;;;;;;;5052134;28;20277;-76
2021/04/29 04:29:23;;;;;;;1.10;0.70;;;;;;;;;;5049216;28;20431;-73
2021/04/29 04:31:49;;;;;;;1.10;0.70;;;;;;;;;;5050995;28;20280;-73
2021/04/29 04:34:15;;;;;;;1.10;0.70;;;;;;;;;;5052936;28;20480;-73
2021/04/29 04:36:41;;;;;;;1.10;0.70;;;;;;;;;;5052832;28;20187;-73
2021/04/29 04:39:07;;;;;;;1.10;0.70;;;;;;;;;;5051295;28;20173;-73
2021/04/29 04:41:33;;;;;;;1.10;0.60;;;;;;;;;;5052340;28;20205;-73
2021/04/29 04:43:59;;;;;;;1.10;0.70;;;;;;;;;;5048599;28;20230;-73
2021/04/29 04:46:25;;;;;;;1.20;0.70;;;;;;;;;;5052015;28;20918;-73
2021/04/29 04:48:51;;;;;;;1.20;0.70;;;;;;;;;;5052562;28;20181;-72
2021/04/29 04:51:17;;;;;;;1.20;0.60;;;;;;;;;;5051759;28;20411;-72
2021/04/29 04:53:43;;;;;;;1.20;0.60;;;;;;;;;;5042756;28;20675;-73
2021/04/29 04:56:09;;;;;;;1.20;0.73;;;;;;;;;;5037641;28;20416;-73
2021/04/29 04:58:35;;;;;;;1.20;0.70;;;;;;;;;;5033195;28;20175;-72
2021/04/29 05:01:01;;;;;;;1.20;0.70;;;;;;;;;;5050064;28;20568;-72
2021/04/29 05:03:28;;;;;;;1.17;0.70;;;;;;;;;;5043166;28;20187;-72
2021/04/29 05:05:54;;;;;;;1.20;0.70;;;;;;;;;;5050520;28;20391;-73
2021/04/29 05:08:20;;;;;;;1.20;0.70;;;;;;;;;;5052588;28;20198;-73
2021/04/29 05:10:46;;;;;;;1.20;0.70;;;;;;;;;;5052559;28;20181;-73
2021/04/29 05:13:12;;;;;;;1.20;0.70;;;;;;;;;;5046229;28;20221;-73
2021/04/29 05:15:38;;;;;;;1.20;0.70;;;;;;;;;;5050374;28;20410;-73
2021/04/29 05:18:05;;;;;;;1.20;0.70;;;;;;;;;;5051968;28;20404;-73
2021/04/29 05:20:31;;;;;;;1.20;0.70;;;;;;;;;;5050867;28;20835;-73
2021/04/29 05:22:58;;;;;;;1.20;0.70;;;;;;;;;;5045848;28;20228;-73
2021/04/29 05:25:23;;;;;;;1.20;0.70;;;;;;;;;;5049137;28;20193;-73
2021/04/29 05:27:53;;;;;;;1.20;0.70;;;;;;;;;;5051542;28;20189;-73
2021/04/29 05:30:20;;;;;;;1.20;0.70;;;;;;;;;;5050789;28;20432;-73
2021/04/29 05:32:49;;;;;;;1.20;0.70;;;;;;;;;;5050653;28;20259;-73
2021/04/29 05:35:15;;;;;;;1.20;0.90;;;;;;;;;;5050773;28;20182;-74
2021/04/29 05:37:41;;;;;;;1.20;0.70;;;;;;;;;;5051067;28;20214;-73
2021/04/29 05:40:08;;;;;;;1.20;0.70;;;;;;;;;;5046863;28;20182;-74
2021/04/29 05:42:34;;;;;;;1.20;0.60;;;;;;;;;;5049577;28;20335;-74
2021/04/29 05:45:00;;;;;;;1.20;0.70;;;;;;;;;;5047483;28;20189;-74
2021/04/29 05:47:26;;;;;;;1.20;0.70;;;;;;;;;;5049516;28;20174;-73
2021/04/29 05:49:52;;;;;;;1.20;0.70;;;;;;;;;;5050334;28;20563;-74
2021/04/29 05:52:18;;;;;;;1.20;0.70;;;;;;;;;;5050611;28;20422;-74
2021/04/29 05:54:44;;;;;;;1.20;0.70;;;;;;;;;;5052168;28;20517;-74
2021/04/29 05:57:10;;;;;;;1.30;0.90;;;;;;;;;;5051225;28;20398;-74
2021/04/29 05:59:36;;;;;;;1.20;0.70;;;;;;;;;;5050760;28;20410;-74
2021/04/29 06:02:02;;;;;;;1.20;0.70;;;;;;;;;;5051007;28;20431;-74
2021/04/29 06:04:28;;;;;;;1.20;0.70;;;;;;;;;;5051446;28;20416;-74
2021/04/29 06:06:54;;;;;;;1.20;0.70;;;;;;;;;;5051567;28;20394;-73
2021/04/29 06:09:20;;;;;;;1.20;0.70;;;;;;;;;;5050834;28;20181;-74
2021/04/29 06:11:46;;;;;;;1.40;1.10;;;;;;;;;;5042780;28;20289;-73
2021/04/29 06:14:13;;;;;;;1.17;0.70;;;;;;;;;;5049990;28;20521;-74
2021/04/29 06:16:41;;;;;;;1.20;0.70;;;;;;;;;;5051228;28;20757;-74
2021/04/29 06:19:08;;;;;;;1.10;0.70;;;;;;;;;;5051017;28;20544;-73
2021/04/29 06:21:34;;;;;;;1.20;0.70;;;;;;;;;;5058019;28;20833;-74
2021/04/29 06:24:01;;;;;;;1.20;0.70;;;;;;;;;;5063110;28;20165;-74
2021/04/29 06:26:27;;;;;;;1.20;0.70;;;;;;;;;;5059245;28;20181;-74
2021/04/29 06:28:53;;;;;;;1.20;0.70;;;;;;;;;;5051447;28;20744;-74
2021/04/29 06:31:19;;;;;;;1.20;0.80;;;;;;;;;;5048885;28;20213;-74
2021/04/29 06:33:45;;;;;;;1.95;0.98;;;;;;;;;;5049502;28;20598;-74
2021/04/29 06:36:11;;;;;;;1.20;1.00;;;;;;;;;;5057067;28;20228;-74
2021/04/29 06:38:37;;;;;;;1.20;0.70;;;;;;;;;;5051400;28;20390;-74
2021/04/29 06:41:04;;;;;;;1.20;0.70;;;;;;;;;;5051782;28;20181;-74
2021/04/29 06:43:30;;;;;;;1.17;0.70;;;;;;;;;;5053895;28;20997;-73
2021/04/29 06:45:56;;;;;;;1.10;0.70;;;;;;;;;;5046519;28;20289;-74
2021/04/29 06:48:22;;;;;;;1.17;0.70;;;;;;;;;;5052682;28;20216;-74
2021/04/29 06:50:49;;;;;;;1.17;0.70;;;;;;;;;;5051326;28;20424;-74
2021/04/29 06:53:15;;;;;;;1.15;0.70;;;;;;;;;;5053288;28;20207;-73
2021/04/29 06:55:41;;;;;;;1.10;0.60;;;;;;;;;;5055045;28;20592;-74
2021/04/29 06:58:07;;;;;;;1.40;0.80;;;;;;;;;;5061392;28;20398;-74
2021/04/29 07:00:34;;;;;;;1.10;0.60;;;;;;;;;;5057087;28;20442;-74
2021/04/29 07:03:00;;;;;;;1.10;0.70;;;;;;;;;;5054348;28;20215;-74
2021/04/29 07:05:26;;;;;;;1.10;0.60;;;;;;;;;;5053678;28;20179;-73
2021/04/29 07:07:53;;;;;;;1.10;0.60;;;;;;;;;;5053932;28;20183;-74
2021/04/29 07:10:19;;;;;;;1.10;0.60;;;;;;;;;;5052111;28;20181;-74
2021/04/29 07:12:45;;;;;;;1.10;0.70;;;;;;;;;;5046753;28;20202;-74
2021/04/29 07:15:12;;;;;;;1.10;0.60;;;;;;;;;;5054377;28;20178;-74
2021/04/29 07:17:38;;;;;;;1.10;0.60;;;;;;;;;;5053759;28;20185;-74
2021/04/29 07:20:04;;;;;;;1.10;0.65;;;;;;;;;;5052010;28;20174;-74
2021/04/29 07:22:30;;;;;;;1.10;0.65;;;;;;;;;;5052509;28;20691;-74
2021/04/29 07:24:56;;;;;;;1.10;0.60;;;;;;;;;;5054117;28;20175;-74
2021/04/29 07:27:22;;;;;;;1.10;0.60;;;;;;;;;;5052469;28;20440;-74
2021/04/29 07:29:48;;;;;;;1.20;0.80;;;;;;;;;;5046690;28;20415;-74
2021/04/29 07:32:14;;;;;;;1.10;0.70;;;;;;;;;;5050411;28;20198;-74
2021/04/29 07:34:40;;;;;;;1.10;0.60;;;;;;;;;;5057077;28;20551;-74
2021/04/29 07:37:06;;;;;;;1.10;0.60;;;;;;;;;;5053922;28;20421;-74
2021/04/29 07:39:33;;;;;;;1.10;0.60;;;;;;;;;;5052633;28;20404;-74
2021/04/29 07:41:59;;;;;;;1.20;0.70;;;;;;;;;;5052589;28;20453;-74
2021/04/29 07:44:25;;;;;;;1.20;0.70;;;;;;;;;;5052470;28;20193;-74
2021/04/29 07:46:51;;;;;;;1.10;0.70;;;;;;;;;;5051863;28;20438;-74
2021/04/29 07:49:17;;;;;;;1.10;0.60;;;;;;;;;;5052836;28;20440;-74
2021/04/29 07:51:43;;;;;;;1.10;0.60;;;;;;;;;;5052344;28;20481;-74
2021/04/29 07:54:13;;;;;;;1.10;0.60;;;;;;;;;;5051378;28;20280;-74
2021/04/29 07:56:39;;;;;;;1.10;0.70;;;;;;;;;;5052599;28;20462;-74
2021/04/29 07:59:05;;;;;;;1.10;0.70;;;;;;;;;;5052745;28;20511;-74
2021/04/29 08:01:31;;;;;;;1.10;0.70;;;;;;;;;;5052440;28;20473;-74
2021/04/29 08:04:00;;;;;;;1.10;0.70;;;;;;;;;;5052777;28;20237;-74
2021/04/29 08:06:26;;;;;;;1.10;0.60;;;;;;;;;;5052651;28;20470;-74
2021/04/29 08:08:52;;;;;;;1.10;0.60;;;;;;;;;;5053523;28;20168;-73
2021/04/29 08:11:19;;;;;;;1.10;0.60;;;;;;;;;;5057585;28;20570;-74
2021/04/29 08:13:45;;;;;;;1.10;0.60;;;;;;;;;;5052614;28;20517;-74
2021/04/29 08:16:11;;;;;;;1.67;1.43;;;;;;;;;;5049463;28;20175;-74
2021/04/29 08:18:37;;;;;;;1.10;0.70;;;;;;;;;;5049536;28;20437;-74
2021/04/29 08:21:04;;;;;;;1.10;0.60;;;;;;;;;;5051645;28;20439;-74
2021/04/29 08:23:30;;;;;;;1.10;0.70;;;;;;;;;;5052528;28;20184;-73
2021/04/29 08:25:56;;;;;;;2.17;0.87;;;;;;;;;;5050906;28;20249;-74
2021/04/29 08:28:23;;;;;;;1.10;0.70;;;;;;;;;;5053162;28;20473;-74
2021/04/29 08:30:49;;;;;;;1.10;0.60;;;;;;;;;;5052072;28;20266;-74
2021/04/29 08:33:15;;;;;;;1.10;0.60;;;;;;;;;;5053029;28;20570;-74
2021/04/29 08:35:41;;;;;;;1.10;0.60;;;;;;;;;;5052298;28;20179;-74
2021/04/29 08:38:07;;;;;;;1.10;0.60;;;;;;;;;;5051766;28;20394;-74
2021/04/29 08:40:33;;;;;;;1.10;0.60;;;;;;;;;;5053004;28;20394;-73
2021/04/29 08:42:59;;;;;;;1.10;0.70;;;;;;;;;;5051076;28;20471;-74
2021/04/29 08:45:25;;;;;;;1.10;0.60;;;;;;;;;;5042862;28;20428;-74
2021/04/29 08:47:52;;;;;;;1.10;0.60;;;;;;;;;;5033447;28;20426;-74
2021/04/29 08:50:20;;;;;;;1.10;0.60;;;;;;;;;;5052149;28;20841;-74
2021/04/29 08:52:46;;;;;;;1.40;1.00;;;;;;;;;;5050169;28;20429;-74
2021/04/29 08:55:16;;;;;;;1.10;0.60;;;;;;;;;;5038168;28;20984;-74
2021/04/29 08:57:43;;;;;;;1.10;0.60;;;;;;;;;;5044101;28;20439;-73
2021/04/29 09:00:09;;;;;;;1.10;0.60;;;;;;;;;;5049724;28;20533;-73
2021/04/29 09:02:36;;;;;;;1.10;0.60;;;;;;;;;;5076343;22;20497;-74
2021/04/29 09:05:34;;;;;;;1.10;0.60;;;;;;;;;;5057335;28;20418;-74
2021/04/29 09:08:00;;;;;;;1.10;0.60;;;;;;;;;;5039596;28;20995;-74
2021/04/29 09:10:27;;;;;;;1.10;0.60;;;;;;;;;;5052993;28;20431;-73
2021/04/29 09:12:54;;;;;;;1.10;0.60;;;;;;;;;;5060324;28;20490;-74
2021/04/29 09:15:27;;;;;;;1.10;0.60;;;;;;;;;;5053158;28;20518;-73
2021/04/29 09:18:14;;;;;;;1.10;0.70;;;;;;;;;;5051082;28;20484;-73
2021/04/29 09:20:56;;;;;;;1.23;0.93;;;;;;;;;;5042737;28;20855;-74
2021/04/29 09:23:26;;;;;;;1.10;0.80;;;;;;;;;;5050780;28;20455;-74
2021/04/29 09:26:07;;;;;;;1.10;0.60;;;;;;;;;;5057371;28;20763;-73
2021/04/29 09:28:33;;;;;;;1.10;0.60;;;;;;;;;;5047035;28;20929;-74
2021/04/29 09:31:00;;;;;;;1.20;0.90;;;;;;;;;;5050795;28;20957;-74
2021/04/29 09:33:36;;;;;;;1.20;0.80;;;;;;;;;;5050040;28;20463;-74
2021/04/29 09:36:02;;;;;;;1.10;0.60;;;;;;;;;;5051650;28;20932;-74
2021/04/29 09:38:32;;;;;;;1.10;0.60;;;;;;;;;;5051001;28;20435;-73
2021/04/29 09:40:58;;;;;;;1.10;0.60;;;;;;;;;;5050195;28;20413;-75
2021/04/29 09:43:24;;;;;;;1.93;1.37;;;;;;;;;;5042955;28;20452;-73
2021/04/29 09:46:00;;;;;;;1.10;0.60;;;;;;;;;;5050907;28;20600;-75
2021/04/29 09:48:37;;;;;;;1.60;1.47;;;;;;;;;;5051550;28;20455;-74
2021/04/29 09:51:04;;;;;;;1.10;0.60;;;;;;;;;;5050295;28;20438;-74
2021/04/29 09:53:47;;;;;;;1.27;0.97;;;;;;;;;;5049536;28;20897;-73
2021/04/29 09:56:13;;;;;;;1.10;0.60;;;;;;;;;;5048067;28;20411;-74
2021/04/29 09:58:45;;;;;;;1.10;0.60;;;;;;;;;;5049567;28;20518;-73
2021/04/29 10:01:11;;;;;;;1.10;0.60;;;;;;;;;;5047389;28;20419;-74
2021/04/29 10:03:38;;;;;;;1.10;0.60;;;;;;;;;;5049304;28;20822;-74
2021/04/29 10:06:05;;;;;;;1.10;0.60;;;;;;;;;;5051331;28;20449;-75
2021/04/29 10:08:33;;;;;;;1.10;0.60;;;;;;;;;;5051009;28;20439;-75
2021/04/29 10:11:00;;;;;;;1.63;1.00;;;;;;;;;;5051499;28;20436;-74
2021/04/29 10:13:42;;;;;;;1.10;0.60;;;;;;;;;;5049103;28;20961;-75
2021/04/29 10:16:08;;;;;;;1.00;0.70;;;;;;;;;;5036750;28;21003;-75
2021/04/29 10:18:34;;;;;;;1.00;0.60;;;;;;;;;;5062309;28;20657;-74
2021/04/29 10:21:01;;;;;;;1.00;0.60;;;;;;;;;;5044670;28;20520;-75
2021/04/29 10:23:27;;;;;;;1.00;0.50;;;;;;;;;;5054335;28;20455;-74
2021/04/29 10:25:55;;;;;;;1.00;0.60;;;;;;;;;;5053935;28;20641;-74
2021/04/29 10:28:33;;;;;;;1.00;0.57;;;;;;;;;;5055091;28;20415;-74
2021/04/29 10:30:59;;;;;;;1.00;0.60;;;;;;;;;;5054531;28;20428;-73
2021/04/29 10:33:25;;;;;;;0.90;0.60;;;;;;;;;;5053564;28;20493;-74
2021/04/29 10:35:55;;;;;;;0.90;0.60;;;;;;;;;;5055101;28;20436;-74
2021/04/29 10:38:24;;;;;;;0.90;0.60;;;;;;;;;;5054113;28;20443;-74
2021/04/29 10:40:50;;;;;;;1.03;0.93;;;;;;;;;;5053633;28;21004;-74
2021/04/29 10:43:27;;;;;;;0.90;0.50;;;;;;;;;;5054069;28;20951;-74
2021/04/29 10:45:54;;;;;;;0.90;0.60;;;;;;;;;;5053917;28;20823;-74
2021/04/29 10:48:20;;;;;;;0.90;0.50;;;;;;;;;;5053533;28;20826;-73
2021/04/29 10:50:47;;;;;;;1.00;0.60;;;;;;;;;;5037813;28;20436;-74
2021/04/29 10:53:14;;;;;;;1.00;0.60;;;;;;;;;;5051871;28;20500;-74
2021/04/29 10:55:43;;;;;;;1.00;0.60;;;;;;;;;;5046503;28;20718;-73
2021/04/29 10:58:09;;;;;;;1.83;1.53;;;;;;;;;;5054176;28;20430;-73
2021/04/29 11:00:53;;;;;;;1.00;0.60;;;;;;;;;;5042818;28;20434;-74
2021/04/29 11:03:27;;;;;;;1.10;0.60;;;;;;;;;;5046477;28;20578;-73
2021/04/29 11:06:03;;;;;;;1.10;0.70;;;;;;;;;;5051719;28;20435;-72
2021/04/29 11:08:34;;;;;;;1.10;0.70;;;;;;;;;;5054550;28;20256;-72
2021/04/29 11:11:00;;;;;;;1.10;0.70;;;;;;;;;;5053756;28;20475;-72
2021/04/29 11:13:27;;;;;;;1.10;0.60;;;;;;;;;;5052834;28;20622;-72
2021/04/29 11:15:58;;;;;;;1.20;0.70;;;;;;;;;;5045460;28;20877;-74
2021/04/29 11:18:24;;;;;;;1.10;0.60;;;;;;;;;;5053289;28;20178;-73
2021/04/29 11:20:54;;;;;;;1.17;0.70;;;;;;;;;;5050905;28;20181;-73
2021/04/29 11:23:25;;;;;;;1.10;0.60;;;;;;;;;;5049251;28;20427;-73
2021/04/29 11:25:53;;;;;;;1.10;0.70;;;;;;;;;;5051445;28;20181;-74
2021/04/29 11:28:27;;;;;;;1.10;0.70;;;;;;;;;;5052055;28;20183;-73
2021/04/29 11:30:54;;;;;;;1.10;0.60;;;;;;;;;;5053844;28;20200;-74
2021/04/29 11:33:20;;;;;;;1.10;0.70;;;;;;;;;;5052102;28;20734;-73
2021/04/29 11:35:46;;;;;;;1.10;0.70;;;;;;;;;;5051564;28;20545;-73
2021/04/29 11:38:13;;;;;;;1.10;0.60;;;;;;;;;;5051139;28;20269;-73
2021/04/29 11:40:39;;;;;;;1.10;0.60;;;;;;;;;;5048542;28;20429;-73
2021/04/29 11:43:06;;;;;;;1.10;0.60;;;;;;;;;;5053365;28;20687;-74
2021/04/29 11:45:36;;;;;;;1.10;0.60;;;;;;;;;;5052068;28;20442;-74
2021/04/29 11:48:15;;;;;;;1.10;0.60;;;;;;;;;;5053698;28;20185;-74
2021/04/29 11:50:44;;;;;;;1.10;0.60;;;;;;;;;;5047113;28;20495;-75
2021/04/29 11:53:13;;;;;;;1.00;0.60;;;;;;;;;;5050026;28;20479;-75
2021/04/29 11:55:41;;;;;;;0.90;0.50;;;;;;;;;;5053687;28;20404;-75
2021/04/29 11:58:15;;;;;;;0.80;0.50;;;;;;;;;;5051654;28;20437;-74
2021/04/29 12:00:42;;;;;;;0.80;0.50;;;;;;;;;;5037324;28;20942;-74
2021/04/29 12:03:09;;;;;;;0.70;0.50;;;;;;;;;;5045104;28;20480;-74
2021/04/29 12:05:42;;;;;;;0.60;0.50;;;;;;;;;;5051415;28;20454;-74
2021/04/29 12:08:10;;;;;;;0.60;0.50;;;;;;;;;;5050197;28;20843;-74
2021/04/29 12:10:43;;;;;;;0.60;0.50;;;;;;;;;;5061402;28;21133;-74
2021/04/29 12:13:09;;;;;;;0.70;0.50;;;;;;;;;;5052379;28;20473;-74
2021/04/29 12:15:36;;;;;;;0.70;0.50;;;;;;;;;;5037726;28;20423;-74
2021/04/29 12:18:04;;;;;;;0.70;0.50;;;;;;;;;;5041319;28;20441;-74
2021/04/29 12:20:30;;;;;;;0.80;0.50;;;;;;;;;;5051774;28;20467;-74
2021/04/29 12:22:56;;;;;;;0.90;0.60;;;;;;;;;;5051308;28;20478;-75
2021/04/29 12:25:22;;;;;;;0.90;0.60;;;;;;;;;;5051478;28;20502;-74
2021/04/29 12:27:48;;;;;;;0.90;0.60;;;;;;;;;;5051755;28;20433;-75
2021/04/29 12:30:15;;;;;;;1.00;0.70;;;;;;;;;;5051635;28;20510;-75
2021/04/29 12:32:43;;;;;;;1.10;0.82;;;;;;;;;;5052682;28;20933;-74
2021/04/29 12:35:10;;;;;;;1.00;0.60;;;;;;;;;;5046852;28;20194;-74
2021/04/29 12:37:36;;;;;;;1.00;0.60;;;;;;;;;;5056155;28;20182;-74
2021/04/29 12:40:03;;;;;;;1.00;0.70;;;;;;;;;;5054774;28;20185;-74
2021/04/29 12:42:29;;;;;;;1.00;0.70;;;;;;;;;;5052506;28;20269;-74
2021/04/29 12:44:58;;;;;;;1.00;0.60;;;;;;;;;;5049966;28;20446;-75
2021/04/29 12:47:24;;;;;;;1.00;0.60;;;;;;;;;;5051557;28;20439;-74
2021/04/29 12:50:04;;;;;;;1.00;0.60;;;;;;;;;;5052584;28;20918;-75
2021/04/29 12:52:30;;;;;;;1.00;0.60;;;;;;;;;;5051331;28;20443;-75
2021/04/29 12:54:57;;;;;;;1.00;0.60;;;;;;;;;;5052026;28;20478;-74
2021/04/29 12:57:29;;;;;;;1.00;0.60;;;;;;;;;;5052046;28;20986;-75
2021/04/29 12:59:56;;;;;;;1.00;0.67;;;;;;;;;;5046682;28;20453;-72
2021/04/29 13:02:22;;;;;;;1.00;0.60;;;;;;;;;;5034455;28;20557;-75
2021/04/29 13:04:59;;;;;;;0.90;0.60;;;;;;;;;;5056308;28;20795;-75
2021/04/29 13:07:25;;;;;;;0.90;0.60;;;;;;;;;;5051635;28;20481;-74
2021/04/29 13:09:51;;;;;;;0.90;0.50;;;;;;;;;;5050809;28;20433;-75
2021/04/29 13:12:18;;;;;;;0.90;0.50;;;;;;;;;;5057049;28;20423;-74
2021/04/29 13:14:45;;;;;;;0.80;0.50;;;;;;;;;;5052220;28;20491;-74
2021/04/29 13:17:13;;;;;;;0.80;0.60;;;;;;;;;;5050155;28;20801;-74
2021/04/29 13:19:41;;;;;;;0.80;0.50;;;;;;;;;;5038147;28;20791;-74
2021/04/29 13:22:08;;;;;;;0.80;0.50;;;;;;;;;;5047198;28;20792;-73
2021/04/29 13:24:35;;;;;;;0.83;0.50;;;;;;;;;;5049244;28;20439;-74
2021/04/29 13:27:01;;;;;;;0.97;0.87;;;;;;;;;;5053040;28;20495;-74
2021/04/29 13:29:28;;;;;;;0.90;0.60;;;;;;;;;;5049954;28;20431;-73
2021/04/29 13:31:55;;;;;;;0.90;0.60;;;;;;;;;;5045554;28;20412;-76
2021/04/29 13:34:20;;;;;;;0.90;0.60;;;;;;;;;;5050374;28;20474;-74
2021/04/29 13:36:47;;;;;;;1.00;0.60;;;;;;;;;;5051458;28;20460;-75
2021/04/29 13:39:13;;;;;;;1.00;0.60;;;;;;;;;;5050309;28;20433;-74
2021/04/29 13:41:41;;;;;;;1.10;0.60;;;;;;;;;;5054078;28;20183;-73
2021/04/29 13:44:07;;;;;;;1.10;0.60;;;;;;;;;;5054692;28;20177;-75
2021/04/29 13:46:33;;;;;;;1.10;0.70;;;;;;;;;;5043545;28;20230;-74
2021/04/29 13:48:59;;;;;;;1.10;0.70;;;;;;;;;;5051081;28;20189;-74
2021/04/29 13:51:25;;;;;;;1.10;0.70;;;;;;;;;;5050278;28;20783;-75
2021/04/29 13:53:51;;;;;;;1.10;0.70;;;;;;;;;;5041103;28;20503;-75
2021/04/29 13:56:17;;;;;;;1.10;0.70;;;;;;;;;;5050245;28;20428;-75
2021/04/29 13:58:43;;;;;;;1.10;0.70;;;;;;;;;;5050676;28;20418;-75
2021/04/29 14:01:10;;;;;;;1.20;0.70;;;;;;;;;;5040889;28;20442;-75
2021/04/29 14:03:36;;;;;;;1.20;0.70;;;;;;;;;;5051283;28;20451;-74
2021/04/29 14:06:03;;;;;;;1.20;0.70;;;;;;;;;;5050711;28;20182;-74
2021/04/29 14:08:29;;;;;;;1.20;0.70;;;;;;;;;;5050083;28;20205;-74
2021/04/29 14:10:55;;;;;;;1.20;0.70;;;;;;;;;;5049928;28;20177;-74
2021/04/29 14:13:21;;;;;;;1.20;0.70;;;;;;;;;;5050411;28;20985;-74
2021/04/29 14:15:47;;;;;;;1.20;0.70;;;;;;;;;;5042631;28;20478;-74
2021/04/29 14:18:13;;;;;;;1.20;0.70;;;;;;;;;;5050944;28;20941;-74
2021/04/29 14:20:39;;;;;;;1.20;0.70;;;;;;;;;;5047304;28;20443;-74
2021/04/29 14:23:05;;;;;;;1.20;0.70;;;;;;;;;;5040963;28;20246;-74
2021/04/29 14:25:31;;;;;;;1.20;0.70;;;;;;;;;;5047317;28;20190;-74
2021/04/29 14:27:57;;;;;;;1.20;0.70;;;;;;;;;;5051547;28;20523;-74
2021/04/29 14:30:24;;;;;;;1.20;0.70;;;;;;;;;;5041920;28;20775;-73
2021/04/29 14:32:50;;;;;;;1.20;0.70;;;;;;;;;;5051002;28;20583;-75
2021/04/29 14:35:16;;;;;;;1.20;0.70;;;;;;;;;;5049899;28;20204;-75
2021/04/29 14:37:44;;;;;;;1.20;0.70;;;;;;;;;;5049608;28;20191;-74
2021/04/29 14:40:11;;;;;;;1.20;0.70;;;;;;;;;;5050479;28;20181;-73
2021/04/29 14:42:37;;;;;;;1.20;0.70;;;;;;;;;;5048596;28;20342;-74